createdAt,value
2018-07-04T00:00:37.604Z,101119.30
2018-07-04T00:05:52.054Z,101121.86
2018-07-04T00:11:06.464Z,101120.16
2018-07-04T00:16:20.943Z,101125.78
2018-07-04T00:21:35.464Z,101122.15
2018-07-04T00:26:49.839Z,101116.47
2018-07-04T00:32:04.256Z,101118.88
2018-07-04T00:37:18.659Z,101117.09
2018-07-04T00:42:34.024Z,101133.58
2018-07-04T00:47:48.587Z,101119.13
2018-07-04T00:53:02.902Z,101128.59
2018-07-04T00:58:17.362Z,101126.41
2018-07-04T01:03:31.794Z,101125.81
2018-07-04T01:08:46.202Z,101127.36
2018-07-04T01:14:00.777Z,101129.92
2018-07-04T01:19:15.241Z,101126.42
2018-07-04T01:24:29.768Z,101127.95
2018-07-04T01:29:44.222Z,101116.04
2018-07-04T01:34:58.775Z,101119.10
2018-07-04T01:40:13.146Z,101112.06
2018-07-04T01:45:27.579Z,101110.22
2018-07-04T01:50:42.184Z,101108.06
2018-07-04T01:55:56.557Z,101103.41
2018-07-04T02:01:10.966Z,101102.90
2018-07-04T02:06:25.381Z,101107.28
2018-07-04T02:11:39.834Z,101106.80
2018-07-04T02:16:54.297Z,101104.13
2018-07-04T02:22:08.663Z,101099.77
2018-07-04T02:27:23.164Z,101105.46
2018-07-04T02:32:37.563Z,101104.95
2018-07-04T02:37:51.995Z,101109.48
2018-07-04T02:43:06.559Z,101105.13
2018-07-04T02:48:21.099Z,101113.67
2018-07-04T02:53:35.666Z,101110.16
2018-07-04T02:58:50.018Z,101112.50
2018-07-04T03:04:04.342Z,101111.98
2018-07-04T03:09:18.952Z,101106.12
2018-07-04T03:14:33.382Z,101109.81
2018-07-04T03:19:47.855Z,101107.78
2018-07-04T03:25:02.280Z,101117.16
2018-07-04T03:30:16.715Z,101110.47
2018-07-04T03:35:31.159Z,101109.62
2018-07-04T03:40:45.602Z,101106.12
2018-07-04T03:46:00.074Z,101110.32
2018-07-04T03:51:14.549Z,101108.30
2018-07-04T03:56:29.005Z,101101.61
2018-07-04T04:01:43.541Z,101110.30
2018-07-04T04:06:57.968Z,101120.13
2018-07-04T04:12:12.447Z,101114.36
2018-07-04T04:17:26.907Z,101126.70
2018-07-04T04:22:41.353Z,101124.70
2018-07-04T04:27:55.852Z,101123.91
2018-07-04T04:33:10.122Z,101098.13
2018-07-04T04:38:24.535Z,101103.20
2018-07-04T04:43:38.943Z,101110.90
2018-07-04T04:48:53.409Z,101108.34
2018-07-04T04:54:07.769Z,101116.05
2018-07-04T04:59:22.643Z,101104.30
2018-07-04T05:04:37.078Z,101111.67
2018-07-04T05:09:51.613Z,101108.33
2018-07-04T05:15:05.974Z,101107.87
2018-07-04T05:20:20.440Z,101108.89
2018-07-04T05:25:34.823Z,101109.81
2018-07-04T05:30:49.155Z,101101.20
2018-07-04T05:36:03.571Z,101099.08
2018-07-04T05:41:18.016Z,101108.30
2018-07-04T05:46:32.322Z,101111.77
2018-07-04T05:51:46.888Z,101105.92
2018-07-04T05:57:01.094Z,101104.45
2018-07-04T06:02:15.428Z,101108.52
2018-07-04T06:07:29.702Z,101105.08
2018-07-04T06:12:44.131Z,101108.55
2018-07-04T06:17:59.106Z,101097.59
2018-07-04T06:23:13.504Z,101098.33
2018-07-04T06:28:28.010Z,101098.34
2018-07-04T06:33:42.521Z,101108.34
2018-07-04T06:38:44.416Z,101099.22
2018-07-04T06:43:46.431Z,101101.36
2018-07-04T06:48:48.341Z,101108.50
2018-07-04T06:53:50.286Z,101106.17
2018-07-04T06:58:52.216Z,101099.56
2018-07-04T07:04:06.497Z,101096.85
2018-07-04T07:09:20.944Z,101099.38
2018-07-04T07:14:35.400Z,101099.66
2018-07-04T07:19:49.762Z,101094.38
2018-07-04T07:25:04.187Z,101096.52
2018-07-04T07:30:18.932Z,101097.08
2018-07-04T07:35:33.335Z,101094.22
2018-07-04T07:40:47.515Z,101092.48
2018-07-04T07:46:01.922Z,101087.73
2018-07-04T07:51:16.322Z,101078.06
2018-07-04T07:56:30.819Z,101081.21
2018-07-04T08:01:45.095Z,101074.96
2018-07-04T08:06:59.631Z,101065.92
2018-07-04T08:12:13.983Z,101071.06
2018-07-04T08:17:28.415Z,101058.27
2018-07-04T08:22:42.817Z,101057.42
2018-07-04T08:27:57.236Z,101051.73
2018-07-04T08:33:11.485Z,101048.52
2018-07-04T08:38:25.903Z,101041.96
2018-07-04T08:43:40.362Z,101042.40
2018-07-04T08:48:54.706Z,101049.95
2018-07-04T08:54:09.161Z,101038.44
2018-07-04T08:59:23.574Z,101034.53
2018-07-04T09:04:37.941Z,101040.72
2018-07-04T09:09:52.270Z,101030.14
2018-07-04T09:15:06.707Z,101032.12
2018-07-04T09:20:21.097Z,101035.95
2018-07-04T09:25:35.673Z,101018.55
2018-07-04T09:30:50.083Z,101019.36
2018-07-04T09:36:04.467Z,101015.00
2018-07-04T09:41:18.843Z,101014.05
2018-07-04T09:46:33.251Z,101015.05
2018-07-04T09:51:47.777Z,101011.44
2018-07-04T09:57:02.057Z,101007.20
2018-07-04T10:02:16.495Z,101004.25
2018-07-04T10:07:30.926Z,101001.82
2018-07-04T10:12:45.369Z,101000.53
2018-07-04T10:17:59.831Z,100996.06
2018-07-04T10:23:14.273Z,100987.91
2018-07-04T10:28:28.649Z,100974.88
2018-07-04T10:33:43.047Z,100980.09
2018-07-04T10:38:57.496Z,100974.58
2018-07-04T10:44:12.009Z,100975.41
2018-07-04T10:49:26.384Z,100965.50
2018-07-04T10:54:40.736Z,100967.48
2018-07-04T10:59:55.066Z,100956.57
2018-07-04T11:05:09.530Z,100959.19
2018-07-04T11:10:23.890Z,100953.80
2018-07-04T11:15:38.245Z,100951.74
2018-07-04T11:20:52.642Z,100955.04
2018-07-04T11:26:06.897Z,100933.20
2018-07-04T11:31:21.376Z,100936.61
2018-07-04T11:36:35.916Z,100933.91
2018-07-04T11:41:50.185Z,100920.51
2018-07-04T11:46:52.133Z,100917.19
2018-07-04T11:51:54.083Z,100928.24
2018-07-04T11:56:56.095Z,100919.17
2018-07-04T12:01:58.003Z,100924.13
2018-07-04T12:07:00.794Z,100920.63
2018-07-04T12:12:02.760Z,100911.58
2018-07-04T12:17:04.747Z,100912.08
2018-07-04T12:22:07.126Z,100909.02
2018-07-04T12:27:09.042Z,100893.72
2018-07-04T12:32:10.985Z,100903.78
2018-07-04T12:37:12.951Z,100901.92
2018-07-04T12:42:15.027Z,100892.77
2018-07-04T12:47:16.994Z,100888.45
2018-07-04T12:52:18.882Z,100885.42
2018-07-04T12:57:33.256Z,100883.81
2018-07-04T13:02:47.626Z,100869.52
2018-07-04T13:08:02.127Z,100851.30
2018-07-04T13:13:16.586Z,100864.67
2018-07-04T13:18:31.236Z,100845.17
2018-07-04T13:23:45.874Z,100848.30
2018-07-04T13:29:00.102Z,100835.03
2018-07-04T13:34:14.548Z,100831.76
2018-07-04T13:39:29.062Z,100833.37
2018-07-04T13:44:43.390Z,100819.89
2018-07-04T13:49:57.969Z,100808.77
2018-07-04T13:55:12.322Z,100815.31
2018-07-04T14:00:26.828Z,100807.71
2018-07-04T14:05:41.324Z,100800.09
2018-07-04T14:10:55.644Z,100810.04
2018-07-04T14:16:10.165Z,100796.45
2018-07-04T14:21:24.610Z,100791.57
2018-07-04T14:26:39.202Z,100793.42
2018-07-04T14:31:53.560Z,100781.48
2018-07-04T14:37:07.927Z,100778.25
2018-07-04T14:42:22.310Z,100774.39
2018-07-04T14:47:36.693Z,100771.16
2018-07-04T14:52:51.209Z,100760.98
2018-07-04T14:58:05.419Z,100752.73
2018-07-04T15:03:19.831Z,100750.48
2018-07-04T15:08:34.274Z,100752.29
2018-07-04T15:13:48.593Z,100746.77
2018-07-04T15:19:03.111Z,100742.36
2018-07-04T15:24:17.405Z,100749.00
2018-07-04T15:29:31.799Z,100739.13
2018-07-04T15:34:46.164Z,100734.70
2018-07-04T15:40:00.655Z,100727.45
2018-07-04T15:45:14.991Z,100732.89
2018-07-04T15:50:29.516Z,100739.47
2018-07-04T15:55:43.956Z,100733.58
2018-07-04T16:00:58.388Z,100729.52
2018-07-04T16:06:13.007Z,100729.42
2018-07-04T16:11:27.284Z,100724.22
2018-07-04T16:16:41.713Z,100720.03
2018-07-04T16:21:56.119Z,100714.72
2018-07-04T16:27:10.517Z,100714.54
2018-07-04T16:32:25.042Z,100722.02
2018-07-04T16:37:39.468Z,100714.73
2018-07-04T16:42:53.793Z,100713.05
2018-07-04T16:48:08.181Z,100702.22
2018-07-04T16:53:22.654Z,100697.95
2018-07-04T16:58:37.046Z,100707.84
2018-07-04T17:03:51.558Z,100705.38
2018-07-04T17:09:05.927Z,100695.34
2018-07-04T17:14:20.358Z,100697.17
2018-07-04T17:19:34.750Z,100697.24
2018-07-04T17:24:49.100Z,100692.38
2018-07-04T17:30:03.514Z,100696.34
2018-07-04T17:35:17.938Z,100691.17
2018-07-04T17:40:32.426Z,100690.41
2018-07-04T17:45:46.878Z,100687.66
2018-07-04T17:51:01.500Z,100687.21
2018-07-04T17:56:15.949Z,100687.08
2018-07-04T18:01:30.598Z,100681.16
2018-07-04T18:06:45.059Z,100678.67
2018-07-04T18:11:59.596Z,100686.87
2018-07-04T18:17:13.911Z,100691.01
2018-07-04T18:22:28.263Z,100682.78
2018-07-04T18:27:42.682Z,100677.50
2018-07-04T18:32:57.085Z,100675.77
2018-07-04T18:38:11.486Z,100670.11
2018-07-04T18:43:25.922Z,100674.47
2018-07-04T18:48:40.259Z,100677.34
2018-07-04T18:53:54.707Z,100679.94
2018-07-04T18:59:09.360Z,100676.77
2018-07-04T19:04:23.773Z,100679.61
2018-07-04T19:09:38.315Z,100687.97
2018-07-04T19:14:53.863Z,100690.74
2018-07-04T19:20:08.657Z,100689.98
2018-07-04T19:25:22.970Z,100699.89
2018-07-04T19:30:37.379Z,100706.52
2018-07-04T19:35:51.769Z,100707.31
2018-07-04T19:41:06.165Z,100718.25
2018-07-04T19:46:20.899Z,100721.35
2018-07-04T19:51:36.332Z,100727.12
2018-07-04T19:56:50.661Z,100731.69
2018-07-04T20:02:04.911Z,100734.73
2018-07-04T20:07:20.071Z,100729.81
2018-07-04T20:12:36.356Z,100733.14
2018-07-04T20:17:54.471Z,100735.97
2018-07-04T20:23:10.716Z,100739.23
2018-07-04T20:28:26.713Z,100734.57
2018-07-04T20:33:42.301Z,100746.47
2018-07-04T20:38:57.458Z,100746.09
2018-07-04T20:44:11.853Z,100740.87
2018-07-04T20:49:26.449Z,100740.91
2018-07-04T20:54:40.819Z,100748.24
2018-07-04T20:59:55.318Z,100749.84
2018-07-04T21:05:09.578Z,100757.64
2018-07-04T21:10:23.962Z,100757.25
2018-07-04T21:15:38.405Z,100757.98
2018-07-04T21:20:52.813Z,100753.63
2018-07-04T21:26:07.541Z,100756.31
2018-07-04T21:31:21.901Z,100760.26
2018-07-04T21:36:36.315Z,100764.00
2018-07-04T21:41:50.595Z,100773.66
2018-07-04T21:47:04.997Z,100768.50
2018-07-04T21:52:19.637Z,100767.88
2018-07-04T21:57:34.171Z,100769.84
2018-07-04T22:02:48.537Z,100759.33
2018-07-04T22:08:03.039Z,100751.08
2018-07-04T22:13:17.504Z,100756.05
2018-07-04T22:18:31.960Z,100755.79
2018-07-04T22:23:46.336Z,100748.94
2018-07-04T22:29:00.756Z,100747.39
2018-07-04T22:34:15.289Z,100751.20
2018-07-04T22:39:29.863Z,100754.27
2018-07-04T22:44:44.364Z,100746.78
2018-07-04T22:49:58.836Z,100741.26
2018-07-04T22:55:13.170Z,100738.61
2018-07-04T23:00:27.549Z,100746.91
2018-07-04T23:05:41.919Z,100744.54
2018-07-04T23:10:56.393Z,100741.75
2018-07-04T23:16:10.789Z,100746.09
2018-07-04T23:21:25.210Z,100745.78
2018-07-04T23:26:39.594Z,100746.60
2018-07-04T23:31:54.002Z,100741.02
2018-07-04T23:37:08.519Z,100752.65
2018-07-04T23:42:22.862Z,100748.69
2018-07-04T23:47:37.270Z,100741.92
2018-07-04T23:52:51.694Z,100741.83
2018-07-04T23:58:05.979Z,100739.52
